Time;durP1;ratioP1;P1;durP2;ratioP2;P2;SDS_P1;SDS_P2;PMS_P1;PMS_P2;Temp;Humidity;BMP_temperature;BMP_pressure;BME280_temperature;BME280_humidity;BME280_pressure;Samples;Min_cycle;Max_cycle;Signal;HPM_P1;HPM_P2
2024/02/19 00:02:06;;;;;;;7.38;1.77;;;11.00;90.10;;;;;;5027923;28;20037;-63
2024/02/19 00:04:31;;;;;;;2.70;0.90;;;11.00;90.10;;;;;;5023479;28;20061;-63
2024/02/19 00:06:57;;;;;;;2.80;1.52;;;11.00;90.10;;;;;;5030480;28;20057;-63
2024/02/19 00:09:23;;;;;;;11.93;1.45;;;11.00;90.10;;;;;;5028299;28;20347;-62
2024/02/19 00:11:49;;;;;;;5.93;1.88;;;11.00;90.00;;;;;;5028331;28;20045;-62
2024/02/19 00:14:15;;;;;;;7.15;1.75;;;11.00;90.00;;;;;;5028729;28;20037;-63
2024/02/19 00:16:42;;;;;;;8.60;2.03;;;11.00;90.00;;;;;;5011082;28;20029;-63
2024/02/19 00:19:08;;;;;;;2.63;0.85;;;11.00;90.00;;;;;;5028133;28;20034;-64
2024/02/19 00:21:34;;;;;;;9.57;1.13;;;11.00;90.00;;;;;;5026630;28;20035;-63
2024/02/19 00:23:59;;;;;;;5.30;1.73;;;11.00;90.00;;;;;;5026709;28;20033;-63
2024/02/19 00:26:25;;;;;;;3.33;1.25;;;11.00;89.90;;;;;;5032964;28;20029;-63
2024/02/19 00:28:51;;;;;;;7.30;1.98;;;11.00;90.00;;;;;;5029065;28;20029;-63
2024/02/19 00:31:17;;;;;;;6.53;2.15;;;11.00;89.90;;;;;;5032967;28;20389;-66
2024/02/19 00:33:43;;;;;;;6.00;1.55;;;10.90;89.90;;;;;;5028446;28;20508;-66
2024/02/19 00:36:09;;;;;;;6.47;1.80;;;10.90;90.00;;;;;;5031531;28;20041;-66
2024/02/19 00:38:36;;;;;;;2.60;1.20;;;10.90;90.00;;;;;;5032869;28;20042;-66
2024/02/19 00:41:05;;;;;;;6.20;1.98;;;10.90;90.00;;;;;;5031447;28;20053;-66
2024/02/19 00:43:31;;;;;;;15.75;2.67;;;10.90;90.00;;;;;;5031065;28;20033;-66
2024/02/19 00:45:58;;;;;;;6.07;1.90;;;10.90;90.00;;;;;;5029464;28;20014;-63
2024/02/19 00:48:24;;;;;;;6.07;1.67;;;10.90;90.20;;;;;;5031387;28;20025;-63
2024/02/19 00:50:50;;;;;;;5.82;1.75;;;10.90;89.90;;;;;;5031282;28;20021;-64
2024/02/19 00:53:16;;;;;;;1.38;1.10;;;10.80;89.80;;;;;;5030852;28;20720;-64
2024/02/19 00:55:42;;;;;;;8.02;1.77;;;10.80;89.90;;;;;;5038848;28;20041;-64
2024/02/19 00:58:08;;;;;;;4.72;2.10;;;10.80;89.70;;;;;;5029992;28;20033;-63
2024/02/19 01:00:34;;;;;;;5.78;1.88;;;10.80;89.80;;;;;;5030922;28;20048;-63
2024/02/19 01:03:00;;;;;;;9.30;1.90;;;10.80;89.80;;;;;;5032722;28;20488;-63
2024/02/19 01:05:26;;;;;;;8.15;2.30;;;10.80;89.70;;;;;;5029804;28;20047;-66
2024/02/19 01:07:52;;;;;;;7.45;1.27;;;10.80;89.70;;;;;;5030179;28;20388;-63
2024/02/19 01:10:19;;;;;;;4.60;1.50;;;10.80;89.50;;;;;;5035436;28;20029;-63
2024/02/19 01:12:45;;;;;;;9.15;1.48;;;10.80;89.60;;;;;;5029534;28;20037;-63
2024/02/19 01:15:10;;;;;;;3.83;1.70;;;10.80;89.60;;;;;;5037708;28;20029;-63
2024/02/19 01:17:36;;;;;;;8.00;1.15;;;10.80;89.50;;;;;;5034454;28;20504;-63
2024/02/19 01:20:04;;;;;;;4.05;1.17;;;10.80;89.50;;;;;;5032419;28;20060;-66
2024/02/19 01:22:30;;;;;;;8.82;2.40;;;10.80;89.50;;;;;;5030414;28;20091;-66
2024/02/19 01:24:57;;;;;;;3.17;1.25;;;10.80;89.50;;;;;;5032204;28;20021;-66
2024/02/19 01:27:23;;;;;;;2.30;0.93;;;10.80;89.40;;;;;;5031537;28;20115;-66
2024/02/19 01:29:50;;;;;;;4.30;2.65;;;10.90;89.50;;;;;;5030014;28;20453;-66
2024/02/19 01:32:16;;;;;;;2.75;1.45;;;10.90;89.40;;;;;;5030268;28;20469;-66
2024/02/19 01:34:43;;;;;;;4.55;1.80;;;10.90;89.30;;;;;;5031896;28;20473;-66
2024/02/19 01:37:09;;;;;;;2.63;1.58;;;10.90;89.30;;;;;;5031218;28;20029;-66
2024/02/19 01:39:35;;;;;;;6.38;1.58;;;10.90;89.30;;;;;;5033272;28;20072;-66
2024/02/19 01:42:03;;;;;;;4.53;1.95;;;10.90;89.30;;;;;;5025121;28;20472;-66
2024/02/19 01:44:29;;;;;;;3.03;1.10;;;10.90;89.30;;;;;;5028681;28;20052;-66
2024/02/19 01:46:57;;;;;;;4.07;1.00;;;10.90;89.40;;;;;;5062776;28;20071;-66
2024/02/19 01:49:23;;;;;;;5.90;2.22;;;10.90;89.30;;;;;;5032515;28;20424;-66
2024/02/19 01:51:50;;;;;;;5.57;1.63;;;10.90;89.30;;;;;;5032091;28;20039;-66
2024/02/19 01:54:17;;;;;;;5.60;1.70;;;10.90;89.20;;;;;;5062810;28;20579;-66
2024/02/19 01:56:43;;;;;;;1.60;1.08;;;10.90;89.20;;;;;;5030920;28;20029;-63
2024/02/19 01:59:10;;;;;;;7.15;1.80;;;10.90;89.20;;;;;;5011679;28;20033;-63
2024/02/19 02:01:39;;;;;;;4.05;1.02;;;10.90;89.20;;;;;;5035284;28;20104;-63
2024/02/19 02:04:09;;;;;;;3.70;1.90;;;10.90;89.20;;;;;;5024184;28;20044;-63
2024/02/19 02:06:35;;;;;;;1.92;0.85;;;10.90;89.20;;;;;;5031100;28;20018;-63
2024/02/19 02:09:02;;;;;;;8.48;1.63;;;10.90;89.10;;;;;;5032391;28;20039;-63
2024/02/19 02:11:28;;;;;;;2.90;1.00;;;11.00;89.10;;;;;;5061720;28;20477;-64
2024/02/19 02:13:54;;;;;;;16.45;1.23;;;11.00;89.10;;;;;;5033469;28;20034;-64
2024/02/19 02:16:28;;;;;;;8.32;2.33;;;11.00;89.00;;;;;;5035943;28;20037;-64
2024/02/19 02:18:55;;;;;;;10.20;1.80;;;11.00;89.00;;;;;;5030468;28;20552;-66
2024/02/19 02:21:21;;;;;;;4.68;1.13;;;10.90;88.90;;;;;;5033039;28;20076;-66
2024/02/19 02:23:48;;;;;;;6.80;1.70;;;10.90;89.10;;;;;;5030162;28;20029;-66
2024/02/19 02:26:14;;;;;;;5.30;1.08;;;10.90;89.00;;;;;;5029035;28;20021;-66
2024/02/19 02:28:42;;;;;;;2.53;1.15;;;10.90;89.00;;;;;;5028136;28;20460;-66
2024/02/19 02:31:08;;;;;;;6.60;3.00;;;10.80;89.00;;;;;;5030744;28;20445;-64
2024/02/19 02:33:35;;;;;;;3.10;1.08;;;10.80;89.20;;;;;;5028880;28;20041;-66
2024/02/19 02:36:02;;;;;;;3.30;1.13;;;10.80;89.10;;;;;;5033057;28;20021;-64
2024/02/19 02:38:28;;;;;;;2.80;1.30;;;10.90;89.10;;;;;;5022454;28;20034;-63
2024/02/19 02:40:55;;;;;;;6.07;1.42;;;10.90;89.10;;;;;;5035241;28;20389;-64
2024/02/19 02:43:21;;;;;;;5.82;2.15;;;10.80;89.10;;;;;;5028231;28;20434;-64
2024/02/19 02:45:47;;;;;;;7.28;1.70;;;10.90;89.10;;;;;;5027183;28;20056;-63
2024/02/19 02:48:13;;;;;;;3.22;1.00;;;10.90;88.90;;;;;;5027935;28;20026;-66
2024/02/19 02:50:39;;;;;;;4.03;1.65;;;10.80;89.00;;;;;;5028160;28;20029;-66
2024/02/19 02:53:05;;;;;;;7.03;1.85;;;10.80;88.90;;;;;;5031628;28;20038;-66
2024/02/19 02:55:31;;;;;;;9.45;2.13;;;10.80;88.90;;;;;;5028144;28;20030;-66
2024/02/19 02:57:57;;;;;;;2.72;1.88;;;10.80;89.00;;;;;;5033889;28;20406;-66
2024/02/19 03:00:23;;;;;;;8.30;1.73;;;10.80;89.10;;;;;;5034524;28;20488;-66
2024/02/19 03:02:49;;;;;;;6.63;1.75;;;10.80;89.10;;;;;;5032335;28;20030;-66
2024/02/19 03:05:14;;;;;;;6.93;1.88;;;10.80;89.20;;;;;;5038432;28;20024;-66
2024/02/19 03:07:40;;;;;;;2.50;1.27;;;10.80;89.10;;;;;;5029341;28;20029;-66
2024/02/19 03:10:07;;;;;;;8.27;3.25;;;10.80;89.00;;;;;;5028213;28;20029;-66
2024/02/19 03:12:32;;;;;;;4.25;1.08;;;10.70;89.00;;;;;;5028246;28;20065;-66
2024/02/19 03:14:58;;;;;;;6.28;1.73;;;10.70;89.10;;;;;;5028611;28;20099;-66
2024/02/19 03:17:24;;;;;;;4.18;1.45;;;10.70;89.20;;;;;;5028280;28;20469;-66
2024/02/19 03:19:51;;;;;;;4.75;2.25;;;10.80;89.10;;;;;;5029763;28;20519;-66
2024/02/19 03:22:17;;;;;;;4.00;2.03;;;10.80;89.10;;;;;;5037893;28;20029;-66
2024/02/19 03:24:43;;;;;;;5.43;1.58;;;10.80;89.10;;;;;;5030604;28;20026;-66
2024/02/19 03:27:09;;;;;;;6.93;1.65;;;10.80;89.10;;;;;;5031584;28;20071;-66
2024/02/19 03:29:35;;;;;;;11.93;1.52;;;10.70;89.10;;;;;;5037827;28;20029;-66
2024/02/19 03:32:01;;;;;;;11.65;2.03;;;10.70;89.20;;;;;;5029330;28;20040;-66
2024/02/19 03:34:27;;;;;;;3.95;2.20;;;10.80;89.30;;;;;;5029693;28;20547;-66
2024/02/19 03:36:54;;;;;;;4.00;1.50;;;10.80;89.20;;;;;;5030752;28;20039;-66
2024/02/19 03:39:20;;;;;;;1.95;0.95;;;10.80;89.20;;;;;;5031392;28;20021;-66
2024/02/19 03:41:46;;;;;;;3.08;1.02;;;10.80;89.20;;;;;;5005907;28;20062;-66
2024/02/19 03:44:12;;;;;;;13.25;2.50;;;10.80;89.10;;;;;;5032386;28;20057;-66
2024/02/19 03:46:38;;;;;;;6.88;2.05;;;10.80;89.20;;;;;;5031283;28;20040;-66
2024/02/19 03:49:04;;;;;;;6.13;1.38;;;10.80;89.30;;;;;;5027863;28;20050;-63
2024/02/19 03:51:30;;;;;;;6.72;2.60;;;10.80;89.30;;;;;;5026738;28;20065;-63
2024/02/19 03:53:56;;;;;;;2.00;1.48;;;10.80;89.30;;;;;;5026053;28;20034;-63
2024/02/19 03:56:22;;;;;;;6.25;0.70;;;10.80;89.40;;;;;;5026886;28;20045;-63
2024/02/19 03:58:48;;;;;;;1.92;1.13;;;10.80;89.40;;;;;;5031780;28;20048;-64
2024/02/19 04:01:14;;;;;;;4.22;1.67;;;10.80;89.40;;;;;;5028842;28;20029;-63
2024/02/19 04:03:40;;;;;;;4.90;1.52;;;10.80;89.40;;;;;;5030773;28;20068;-64
2024/02/19 04:06:06;;;;;;;7.18;2.30;;;10.90;89.50;;;;;;5027353;28;20053;-66
2024/02/19 04:08:32;;;;;;;7.93;1.70;;;10.90;89.30;;;;;;5032508;28;20418;-63
2024/02/19 04:10:58;;;;;;;3.78;1.20;;;10.90;89.20;;;;;;5031824;28;20025;-63
2024/02/19 04:13:24;;;;;;;4.55;1.77;;;10.90;89.20;;;;;;5034749;28;20029;-66
2024/02/19 04:15:50;;;;;;;6.82;2.50;;;10.90;89.30;;;;;;5032889;28;20045;-66
2024/02/19 04:18:16;;;;;;;5.47;1.30;;;10.90;89.30;;;;;;5032908;28;20075;-66
2024/02/19 04:20:42;;;;;;;6.22;1.52;;;10.90;89.30;;;;;;5032674;28;20033;-66
2024/02/19 04:23:08;;;;;;;12.07;2.42;;;10.90;89.40;;;;;;5032479;28;20144;-66
2024/02/19 04:25:34;;;;;;;4.80;1.75;;;10.90;89.40;;;;;;5032711;28;20524;-66
2024/02/19 04:28:00;;;;;;;6.20;2.58;;;10.90;89.40;;;;;;5033180;28;20400;-66
2024/02/19 04:30:26;;;;;;;6.22;2.03;;;10.90;89.30;;;;;;5030504;28;20495;-66
2024/02/19 04:32:52;;;;;;;2.80;1.50;;;10.90;89.40;;;;;;5035462;28;20029;-66
2024/02/19 04:35:19;;;;;;;4.10;0.80;;;10.90;89.30;;;;;;5039202;28;20469;-66
2024/02/19 04:37:45;;;;;;;2.60;1.05;;;10.90;89.30;;;;;;5037843;28;20480;-66
2024/02/19 04:40:12;;;;;;;6.28;2.10;;;10.90;89.30;;;;;;5035523;28;20040;-66
2024/02/19 04:42:39;;;;;;;2.47;1.48;;;10.90;89.30;;;;;;5034562;28;20519;-66
2024/02/19 04:45:05;;;;;;;5.53;1.65;;;10.90;89.40;;;;;;5033007;28;20112;-66
2024/02/19 04:47:31;;;;;;;5.13;1.75;;;10.90;89.40;;;;;;5032416;28;20087;-66
2024/02/19 04:49:57;;;;;;;7.72;2.42;;;10.90;89.40;;;;;;5033224;28;20351;-66
2024/02/19 04:52:23;;;;;;;10.27;2.28;;;10.80;89.40;;;;;;5034175;28;20041;-66
2024/02/19 04:54:49;;;;;;;10.07;2.30;;;10.80;89.40;;;;;;5033844;28;20028;-63
2024/02/19 04:57:15;;;;;;;4.22;1.60;;;10.80;89.40;;;;;;5037072;28;20095;-63
2024/02/19 04:59:42;;;;;;;4.72;1.90;;;10.80;89.50;;;;;;5037214;28;20037;-63
2024/02/19 05:02:08;;;;;;;4.70;1.42;;;10.80;89.60;;;;;;5038772;28;20041;-63
2024/02/19 05:04:33;;;;;;;5.30;1.73;;;10.80;89.60;;;;;;5033767;28;20044;-63
2024/02/19 05:06:59;;;;;;;3.55;1.55;;;10.80;89.60;;;;;;5038611;28;20034;-63
2024/02/19 05:09:25;;;;;;;2.17;1.50;;;10.80;89.50;;;;;;5029964;28;20026;-66
2024/02/19 05:11:51;;;;;;;7.88;2.58;;;10.80;89.60;;;;;;5030864;28;20460;-66
2024/02/19 05:14:17;;;;;;;5.35;1.75;;;10.80;89.60;;;;;;5035503;28;20025;-66
2024/02/19 05:16:43;;;;;;;2.53;1.50;;;10.90;89.50;;;;;;5033025;28;20041;-66
2024/02/19 05:19:09;;;;;;;6.07;1.42;;;10.90;89.50;;;;;;5031122;28;20400;-66
2024/02/19 05:21:43;;;;;;;2.05;1.30;;;10.90;89.50;;;;;;5032711;28;20033;-66
2024/02/19 05:24:09;;;;;;;7.22;1.75;;;10.90;89.40;;;;;;5042468;28;20021;-66
2024/02/19 05:26:36;;;;;;;2.63;1.15;;;10.90;89.30;;;;;;5041314;28;20030;-66
2024/02/19 05:29:02;;;;;;;10.60;1.80;;;10.90;89.40;;;;;;5035797;28;20036;-66
2024/02/19 05:31:33;;;;;;;2.97;1.05;;;10.90;89.40;;;;;;5038467;28;20026;-66
2024/02/19 05:34:01;;;;;;;3.90;1.58;;;10.90;89.40;;;;;;5037058;28;20049;-66
2024/02/19 05:36:27;;;;;;;6.47;1.63;;;10.90;89.50;;;;;;5041582;28;20037;-66
2024/02/19 05:38:53;;;;;;;3.65;1.15;;;10.80;89.40;;;;;;5038110;28;20075;-66
2024/02/19 05:41:19;;;;;;;5.53;1.58;;;10.80;89.50;;;;;;5035014;28;20052;-66
2024/02/19 05:43:46;;;;;;;9.57;1.67;;;10.80;89.60;;;;;;5026795;28;20058;-66
2024/02/19 05:46:16;;;;;;;1.65;1.08;;;10.80;89.60;;;;;;5039620;28;20029;-66
2024/02/19 05:48:43;;;;;;;3.92;1.83;;;10.80;89.60;;;;;;5042491;28;20044;-66
2024/02/19 05:51:11;;;;;;;7.47;1.67;;;10.80;89.60;;;;;;5041487;28;20370;-66
2024/02/19 05:53:37;;;;;;;4.97;1.83;;;10.80;89.60;;;;;;5033007;28;20032;-66
2024/02/19 05:56:04;;;;;;;3.17;1.23;;;10.80;89.60;;;;;;5034208;28;20033;-66
2024/02/19 05:58:31;;;;;;;6.05;2.10;;;10.80;89.70;;;;;;5030116;28;20033;-66
2024/02/19 06:00:56;;;;;;;3.08;1.27;;;10.90;90.10;;;;;;5029934;28;20030;-66
2024/02/19 06:03:24;;;;;;;8.55;1.40;;;10.90;89.60;;;;;;5032059;28;20076;-66
2024/02/19 06:05:50;;;;;;;3.47;1.33;;;10.90;89.70;;;;;;5034394;28;20057;-66
2024/02/19 06:08:16;;;;;;;3.70;1.75;;;10.90;89.60;;;;;;5027380;28;20100;-66
2024/02/19 06:10:45;;;;;;;3.35;1.10;;;10.90;89.60;;;;;;5030073;28;20159;-66
2024/02/19 06:13:12;;;;;;;6.93;2.17;;;10.90;89.60;;;;;;5028017;28;20037;-66
2024/02/19 06:15:37;;;;;;;4.10;1.90;;;10.90;90.10;;;;;;5031160;28;20033;-66
2024/02/19 06:18:03;;;;;;;5.05;1.63;;;10.90;89.70;;;;;;5031290;28;20384;-63
2024/02/19 06:20:29;;;;;;;4.50;1.95;;;10.90;89.80;;;;;;5032846;28;20109;-63
2024/02/19 06:22:55;;;;;;;5.20;1.23;;;10.80;89.80;;;;;;5032698;28;20037;-62
2024/02/19 06:25:20;;;;;;;4.38;1.35;;;10.80;89.90;;;;;;5029568;28;20030;-63
2024/02/19 06:27:46;;;;;;;1.95;1.23;;;10.80;89.80;;;;;;5029907;28;20064;-63
2024/02/19 06:30:12;;;;;;;6.30;2.00;;;10.90;89.90;;;;;;5027829;28;20392;-63
2024/02/19 06:32:37;;;;;;;8.82;1.67;;;10.90;89.80;;;;;;5034839;28;20037;-63
2024/02/19 06:35:04;;;;;;;4.38;1.15;;;10.90;89.80;;;;;;5028093;28;20472;-62
2024/02/19 06:37:30;;;;;;;7.57;2.00;;;10.90;89.80;;;;;;5030135;28;20044;-69
2024/02/19 06:39:55;;;;;;;4.03;1.75;;;10.90;89.80;;;;;;5028366;28;20037;-66
2024/02/19 06:42:21;;;;;;;2.88;1.88;;;10.90;89.70;;;;;;5021871;28;20045;-62
2024/02/19 06:44:47;;;;;;;2.90;1.77;;;10.90;89.80;;;;;;5034358;28;20119;-62
2024/02/19 06:47:13;;;;;;;4.43;2.50;;;10.90;89.90;;;;;;5032199;28;20029;-63
2024/02/19 06:49:39;;;;;;;3.03;2.28;;;10.80;89.90;;;;;;5031513;28;20036;-62
2024/02/19 06:52:05;;;;;;;7.47;2.50;;;10.80;90.00;;;;;;5029896;28;20408;-66
2024/02/19 06:54:30;;;;;;;5.88;2.05;;;10.80;90.00;;;;;;5036223;28;20025;-66
2024/02/19 06:56:56;;;;;;;3.75;2.00;;;10.80;90.00;;;;;;5030311;28;20038;-63
2024/02/19 06:59:22;;;;;;;4.00;1.55;;;10.80;90.20;;;;;;5035770;28;20029;-63
2024/02/19 07:01:48;;;;;;;5.70;2.40;;;10.90;90.00;;;;;;5031710;28;20033;-63
2024/02/19 07:04:13;;;;;;;5.90;2.08;;;10.90;90.00;;;;;;5028737;28;20072;-63
2024/02/19 07:06:39;;;;;;;6.97;3.30;;;10.90;90.00;;;;;;5029695;28;20112;-62
2024/02/19 07:09:05;;;;;;;6.68;2.35;;;10.90;90.00;;;;;;5032828;28;20061;-63
2024/02/19 07:11:31;;;;;;;9.48;2.22;;;10.90;90.00;;;;;;5023814;28;20021;-62
2024/02/19 07:13:56;;;;;;;5.35;1.88;;;10.80;90.00;;;;;;5036449;28;20025;-62
2024/02/19 07:16:22;;;;;;;3.22;1.95;;;10.80;90.00;;;;;;5023820;28;20022;-63
2024/02/19 07:18:49;;;;;;;5.10;2.35;;;10.90;90.00;;;;;;5019217;28;20053;-63
2024/02/19 07:21:16;;;;;;;3.25;2.03;;;10.90;90.00;;;;;;5018230;28;20435;-62
2024/02/19 07:23:42;;;;;;;2.00;0.95;;;10.90;90.00;;;;;;5029972;28;20030;-62
2024/02/19 07:26:07;;;;;;;5.70;1.98;;;10.90;90.00;;;;;;5031280;28;20477;-63
2024/02/19 07:28:33;;;;;;;7.50;2.00;;;10.90;90.00;;;;;;5009958;28;20125;-63
2024/02/19 07:30:59;;;;;;;7.97;2.30;;;10.90;90.00;;;;;;5029285;28;20500;-63
2024/02/19 07:33:27;;;;;;;6.05;1.92;;;11.00;90.00;;;;;;5032181;28;20485;-62
2024/02/19 07:35:52;;;;;;;5.05;2.05;;;11.00;90.00;;;;;;5028974;28;20029;-62
2024/02/19 07:38:20;;;;;;;4.13;2.58;;;11.00;90.00;;;;;;5036328;28;20538;-62
2024/02/19 07:40:46;;;;;;;7.05;2.10;;;11.10;90.00;;;;;;5035630;28;20045;-66
2024/02/19 07:43:13;;;;;;;18.02;3.33;;;11.10;89.90;;;;;;5032000;28;20038;-66
2024/02/19 07:45:39;;;;;;;10.18;2.63;;;11.10;89.90;;;;;;5035924;28;20033;-66
2024/02/19 07:48:06;;;;;;;9.52;2.13;;;11.10;89.90;;;;;;5030720;28;20297;-66
2024/02/19 07:50:33;;;;;;;8.65;2.67;;;11.10;89.90;;;;;;5032874;28;20401;-66
2024/02/19 07:52:58;;;;;;;10.13;2.10;;;11.10;89.80;;;;;;5030750;28;20037;-63
2024/02/19 07:55:27;;;;;;;2.72;1.67;;;11.10;89.90;;;;;;5038888;28;20033;-62
2024/02/19 07:57:53;;;;;;;5.05;1.95;;;11.10;90.00;;;;;;5037919;28;20040;-63
2024/02/19 08:00:21;;;;;;;9.68;1.50;;;11.20;89.90;;;;;;5029214;28;20025;-63
2024/02/19 08:02:47;;;;;;;3.70;2.08;;;11.20;89.80;;;;;;5035787;28;20033;-63
2024/02/19 08:05:12;;;;;;;5.70;1.60;;;11.20;89.80;;;;;;5058726;28;20029;-63
2024/02/19 08:07:38;;;;;;;4.63;2.05;;;11.20;89.80;;;;;;5028868;28;20315;-62
2024/02/19 08:10:04;;;;;;;4.40;1.65;;;11.20;89.80;;;;;;5031768;28;20032;-62
2024/02/19 08:12:34;;;;;;;5.38;1.85;;;11.30;89.80;;;;;;5028521;28;20034;-62
2024/02/19 08:14:59;;;;;;;2.30;1.45;;;11.20;89.80;;;;;;5026578;28;20033;-62
2024/02/19 08:17:25;;;;;;;8.45;2.33;;;11.30;89.90;;;;;;5018848;28;20051;-63
2024/02/19 08:19:51;;;;;;;3.70;1.83;;;11.30;89.80;;;;;;5053544;28;20086;-63
2024/02/19 08:22:16;;;;;;;8.23;2.88;;;11.40;89.80;;;;;;5017482;28;20045;-63
2024/02/19 08:24:42;;;;;;;4.55;1.52;;;11.40;89.70;;;;;;5018663;28;20034;-61
2024/02/19 08:27:08;;;;;;;7.78;1.67;;;11.50;89.60;;;;;;5024762;28;20032;-63
2024/02/19 08:29:33;;;;;;;2.70;1.50;;;11.50;89.60;;;;;;5024004;28;20434;-62
2024/02/19 08:32:01;;;;;;;4.57;1.63;;;11.50;89.60;;;;;;5025072;28;20079;-62
2024/02/19 08:34:27;;;;;;;6.43;2.17;;;11.50;89.60;;;;;;5015624;28;20029;-62
2024/02/19 08:36:53;;;;;;;2.53;1.40;;;11.60;89.60;;;;;;5020793;28;20079;-62
2024/02/19 08:39:18;;;;;;;3.83;1.48;;;11.60;89.50;;;;;;5025702;28;20488;-66
2024/02/19 08:41:44;;;;;;;11.23;1.83;;;11.60;89.40;;;;;;5028565;28;20057;-66
2024/02/19 08:44:10;;;;;;;2.38;1.27;;;11.60;89.50;;;;;;5028679;28;20041;-66
2024/02/19 08:46:35;;;;;;;8.63;2.30;;;11.70;89.60;;;;;;5034188;28;20101;-66
2024/02/19 08:49:01;;;;;;;4.20;2.38;;;11.80;89.60;;;;;;5030331;28;20492;-66
2024/02/19 08:51:28;;;;;;;6.50;1.58;;;11.80;89.40;;;;;;5018846;28;20033;-66
2024/02/19 08:53:54;;;;;;;2.63;1.48;;;11.90;89.30;;;;;;5031436;28;20409;-66
2024/02/19 08:56:20;;;;;;;3.40;1.42;;;11.90;89.80;;;;;;5028407;28;20021;-66
2024/02/19 08:58:45;;;;;;;8.10;2.58;;;11.90;89.30;;;;;;5036067;28;20043;-66
2024/02/19 09:01:13;;;;;;;3.45;1.48;;;12.00;89.20;;;;;;5025934;28;20053;-66
2024/02/19 09:03:39;;;;;;;7.40;1.38;;;12.00;89.20;;;;;;5028824;28;20048;-62
2024/02/19 09:06:06;;;;;;;6.65;1.40;;;12.10;89.10;;;;;;5025897;28;20428;-62
2024/02/19 09:08:32;;;;;;;4.05;2.28;;;12.10;89.10;;;;;;5019978;28;20442;-62
2024/02/19 09:10:58;;;;;;;4.97;2.40;;;12.10;89.10;;;;;;5027836;28;20124;-62
2024/02/19 09:13:24;;;;;;;3.47;1.83;;;12.10;89.00;;;;;;5046498;28;20034;-62
2024/02/19 09:15:49;;;;;;;5.93;1.75;;;12.10;89.10;;;;;;5033180;28;20037;-66
2024/02/19 09:18:15;;;;;;;4.47;1.30;;;12.10;89.00;;;;;;5029100;28;20045;-66
2024/02/19 09:20:41;;;;;;;5.20;1.77;;;12.10;88.90;;;;;;5042475;28;20045;-66
2024/02/19 09:23:06;;;;;;;3.78;1.45;;;12.10;88.90;;;;;;5031950;28;20117;-66
2024/02/19 09:25:32;;;;;;;3.10;1.48;;;12.10;88.90;;;;;;5032697;28;20131;-66
2024/02/19 09:27:58;;;;;;;4.80;1.73;;;12.10;88.80;;;;;;5032720;28;20397;-66
2024/02/19 09:30:24;;;;;;;3.35;1.42;;;12.10;88.90;;;;;;5030767;28;20112;-66
2024/02/19 09:32:49;;;;;;;6.53;2.08;;;12.10;88.90;;;;;;5032722;28;20396;-66
2024/02/19 09:35:16;;;;;;;3.67;1.30;;;12.10;88.90;;;;;;5032647;28;20029;-67
2024/02/19 09:37:42;;;;;;;3.38;1.20;;;12.10;88.80;;;;;;5029395;28;20017;-66
2024/02/19 09:40:11;;;;;;;1.38;1.13;;;12.10;88.70;;;;;;5032477;28;20049;-66
2024/02/19 09:42:37;;;;;;;3.08;2.03;;;12.10;88.70;;;;;;5031121;28;20073;-66
2024/02/19 09:45:04;;;;;;;5.13;1.98;;;12.10;88.70;;;;;;5032229;28;20142;-66
2024/02/19 09:47:32;;;;;;;3.20;1.65;;;12.10;88.80;;;;;;5032500;28;20496;-66
2024/02/19 09:49:58;;;;;;;8.68;2.95;;;12.10;88.70;;;;;;5030084;28;20053;-66
2024/02/19 09:52:25;;;;;;;4.05;2.42;;;12.20;88.50;;;;;;5032722;28;20406;-66
2024/02/19 09:54:51;;;;;;;7.95;2.58;;;12.20;88.60;;;;;;5030027;28;20484;-66
2024/02/19 09:57:21;;;;;;;7.68;2.15;;;12.20;88.50;;;;;;5032321;28;20104;-66
2024/02/19 09:59:48;;;;;;;3.70;1.40;;;12.30;88.50;;;;;;5025156;28;20026;-66
2024/02/19 10:02:21;;;;;;;3.35;1.75;;;12.40;88.40;;;;;;5031115;28;20025;-66
2024/02/19 10:04:49;;;;;;;;;;;12.50;88.40;;;;;;5031996;28;20436;-66
2024/02/19 10:07:18;;;;;;;5.63;2.55;;;12.50;88.20;;;;;;5031808;28;19909;-66
2024/02/19 10:09:44;;;;;;;7.82;2.30;;;12.50;88.00;;;;;;5037420;28;20142;-63
2024/02/19 10:12:10;;;;;;;3.90;1.63;;;12.50;88.10;;;;;;5031319;28;20032;-63
2024/02/19 10:14:36;;;;;;;6.78;1.58;;;12.60;88.00;;;;;;5029661;28;20021;-62
2024/02/19 10:17:01;;;;;;;2.63;1.88;;;12.70;88.00;;;;;;5028578;28;20037;-63
2024/02/19 10:19:27;;;;;;;4.90;1.50;;;12.70;87.60;;;;;;5027291;28;20032;-62
2024/02/19 10:21:54;;;;;;;10.38;2.38;;;12.70;87.50;;;;;;5028161;28;20041;-63
2024/02/19 10:24:19;;;;;;;4.40;1.58;;;12.70;87.40;;;;;;5032062;28;20017;-63
2024/02/19 10:26:47;;;;;;;5.32;2.08;;;12.70;86.90;;;;;;5032527;28;20025;-66
2024/02/19 10:29:13;;;;;;;4.40;2.05;;;12.70;87.00;;;;;;5035187;28;20540;-66
2024/02/19 10:31:40;;;;;;;3.58;1.40;;;12.70;86.90;;;;;;5031212;28;20069;-66
2024/02/19 10:34:06;;;;;;;8.65;2.17;;;12.70;86.90;;;;;;5031496;28;20116;-66
2024/02/19 10:36:33;;;;;;;3.97;2.03;;;12.70;86.80;;;;;;5031496;28;20108;-66
2024/02/19 10:38:58;;;;;;;6.35;2.35;;;12.70;86.90;;;;;;5029997;28;20022;-63
2024/02/19 10:41:24;;;;;;;4.20;1.83;;;12.80;86.90;;;;;;5028999;28;20038;-63
2024/02/19 10:43:53;;;;;;;4.75;2.30;;;12.80;86.90;;;;;;5029559;28;20331;-63
2024/02/19 10:46:21;;;;;;;4.22;2.55;;;12.80;86.90;;;;;;5029034;28;20030;-63
2024/02/19 10:48:49;;;;;;;5.70;2.78;;;12.80;87.00;;;;;;5033181;28;20024;-62
2024/02/19 10:51:17;;;;;;;5.82;2.15;;;12.80;86.90;;;;;;5027772;28;20064;-63
2024/02/19 10:53:44;;;;;;;9.30;2.33;;;12.80;86.70;;;;;;5032701;28;20021;-63
2024/02/19 10:56:17;;;;;;;4.95;2.25;;;12.70;86.80;;;;;;5029689;28;20451;-63
2024/02/19 10:58:56;;;;;;;4.05;2.28;;;12.60;86.60;;;;;;5023334;28;20029;-63
2024/02/19 11:01:23;;;;;;;4.13;2.30;;;12.60;86.80;;;;;;5027761;28;20033;-63
2024/02/19 11:03:49;;;;;;;5.57;2.80;;;12.50;87.00;;;;;;5031024;28;20112;-63
2024/02/19 11:06:14;;;;;;;4.75;1.90;;;12.50;87.10;;;;;;5029488;28;20049;-63
2024/02/19 11:08:52;;;;;;;7.35;2.70;;;12.60;87.10;;;;;;5029449;28;20380;-62
2024/02/19 11:11:19;;;;;;;6.28;1.65;;;12.60;87.00;;;;;;5027288;28;20029;-63
2024/02/19 11:13:47;;;;;;;2.97;2.22;;;12.60;87.00;;;;;;5032544;28;20064;-63
2024/02/19 11:16:20;;;;;;;3.15;2.05;;;12.70;87.10;;;;;;5032995;28;20031;-62
2024/02/19 11:18:46;;;;;;;;;;;12.70;87.00;;;;;;5025017;28;20061;-63
2024/02/19 11:21:12;;;;;;;5.05;2.67;;;12.70;86.90;;;;;;5028915;28;19967;-63
2024/02/19 11:23:37;;;;;;;5.47;2.22;;;12.60;87.00;;;;;;5030693;28;20037;-63
2024/02/19 11:26:04;;;;;;;15.25;2.38;;;12.50;87.00;;;;;;5032554;28;20511;-62
2024/02/19 11:28:35;;;;;;;7.50;2.67;;;12.50;87.20;;;;;;5026923;28;20128;-63
2024/02/19 11:31:01;;;;;;;9.75;2.90;;;12.50;87.30;;;;;;5027357;28;20114;-63
2024/02/19 11:33:26;;;;;;;6.07;2.53;;;12.50;87.30;;;;;;5025896;28;20117;-63
2024/02/19 11:35:57;;;;;;;7.57;1.98;;;12.50;87.40;;;;;;5033229;28;20112;-62
2024/02/19 11:38:26;;;;;;;3.95;2.10;;;12.50;87.20;;;;;;5033144;28;20033;-63
2024/02/19 11:40:52;;;;;;;7.93;2.78;;;12.50;87.20;;;;;;5027748;28;20037;-63
2024/02/19 11:43:19;;;;;;;4.93;1.90;;;12.50;87.10;;;;;;5026615;28;20049;-63
2024/02/19 11:45:45;;;;;;;7.07;2.63;;;12.40;87.10;;;;;;5024862;28;20796;-63
2024/02/19 11:48:11;;;;;;;5.32;1.95;;;12.50;87.20;;;;;;5028115;28;20018;-66
2024/02/19 11:50:36;;;;;;;3.67;2.35;;;12.50;87.20;;;;;;5030980;28;20089;-66
2024/02/19 11:53:04;;;;;;;5.60;2.65;;;12.50;87.20;;;;;;5026069;28;20034;-63
2024/02/19 11:55:31;;;;;;;4.95;1.70;;;12.50;87.10;;;;;;5028872;28;20041;-63
2024/02/19 11:58:00;;;;;;;5.53;2.35;;;12.50;86.90;;;;;;5028063;28;20025;-63
2024/02/19 12:00:29;;;;;;;6.30;1.80;;;12.60;87.00;;;;;;5026844;28;20032;-63
2024/02/19 12:02:56;;;;;;;6.32;2.30;;;12.60;86.90;;;;;;5025858;28;20108;-63
2024/02/19 12:05:22;;;;;;;3.10;1.63;;;12.60;86.90;;;;;;5027300;28;20057;-63
2024/02/19 12:07:48;;;;;;;5.57;2.42;;;12.60;86.80;;;;;;5028923;28;20026;-63
2024/02/19 12:10:15;;;;;;;5.70;2.03;;;12.60;86.80;;;;;;5032680;28;20030;-63
2024/02/19 12:12:42;;;;;;;4.20;1.70;;;12.60;86.80;;;;;;5029656;28;20038;-66
2024/02/19 12:15:15;;;;;;;3.05;2.03;;;12.60;86.80;;;;;;5030340;28;20064;-66
2024/02/19 12:17:42;;;;;;;7.57;2.00;;;12.60;86.70;;;;;;5033516;28;20037;-66
2024/02/19 12:20:12;;;;;;;1.95;1.30;;;12.60;86.70;;;;;;5053096;28;20044;-64
2024/02/19 12:22:41;;;;;;;6.10;2.65;;;12.70;86.80;;;;;;5029542;28;20041;-63
2024/02/19 12:25:07;;;;;;;4.68;1.80;;;12.60;86.60;;;;;;5029424;28;20033;-63
2024/02/19 12:27:36;;;;;;;3.35;2.17;;;12.60;86.70;;;;;;5027793;28;20029;-63
2024/02/19 12:30:03;;;;;;;6.32;2.10;;;12.60;86.70;;;;;;5031096;28;20018;-64
2024/02/19 12:32:29;;;;;;;6.45;2.53;;;12.60;86.60;;;;;;5031839;28;20033;-64
2024/02/19 12:34:55;;;;;;;1.75;1.35;;;12.60;86.60;;;;;;5032693;28;20049;-63
2024/02/19 12:37:21;;;;;;;2.80;2.28;;;12.60;86.50;;;;;;5033107;28;20399;-64
2024/02/19 12:39:47;;;;;;;3.38;1.92;;;12.50;86.50;;;;;;5030890;28;20029;-63
2024/02/19 12:42:14;;;;;;;5.22;3.00;;;12.60;86.60;;;;;;5031761;28;20461;-63
2024/02/19 12:44:40;;;;;;;4.28;1.52;;;12.60;86.50;;;;;;5030142;28;20480;-64